sensor_id;sensor_type;location;lat;lon;timestamp;P1;durP1;ratioP1;P2;durP2;ratioP2
53642;SDS011;39546;45.534;12.048;2023-04-25T00:01:17;3.10;;;2.42;;
53642;SDS011;39546;45.534;12.048;2023-04-25T00:07:20;4.47;;;2.35;;
53642;SDS011;39546;45.534;12.048;2023-04-25T00:13:22;3.72;;;1.98;;
53642;SDS011;39546;45.534;12.048;2023-04-25T00:19:24;2.35;;;1.75;;
53642;SDS011;39546;45.534;12.048;2023-04-25T00:25:28;2.00;;;1.80;;
53642;SDS011;39546;45.534;12.048;2023-04-25T00:31:30;2.53;;;1.67;;
53642;SDS011;39546;45.534;12.048;2023-04-25T00:37:32;1.92;;;1.55;;
53642;SDS011;39546;45.534;12.048;2023-04-25T00:43:34;1.92;;;1.65;;
53642;SDS011;39546;45.534;12.048;2023-04-25T00:49:38;3.60;;;2.87;;
53642;SDS011;39546;45.534;12.048;2023-04-25T00:55:40;3.65;;;2.55;;
53642;SDS011;39546;45.534;12.048;2023-04-25T01:01:43;3.78;;;2.55;;
53642;SDS011;39546;45.534;12.048;2023-04-25T01:07:45;2.42;;;2.00;;
53642;SDS011;39546;45.534;12.048;2023-04-25T01:13:48;3.60;;;2.10;;
53642;SDS011;39546;45.534;12.048;2023-04-25T01:19:50;3.78;;;2.28;;
53642;SDS011;39546;45.534;12.048;2023-04-25T01:25:53;2.78;;;2.00;;
53642;SDS011;39546;45.534;12.048;2023-04-25T01:32:23;2.95;;;1.80;;
53642;SDS011;39546;45.534;12.048;2023-04-25T01:38:25;4.60;;;2.62;;
53642;SDS011;39546;45.534;12.048;2023-04-25T01:44:28;2.65;;;1.90;;
53642;SDS011;39546;45.534;12.048;2023-04-25T01:50:30;2.50;;;1.77;;
53642;SDS011;39546;45.534;12.048;2023-04-25T01:56:33;3.37;;;2.37;;
53642;SDS011;39546;45.534;12.048;2023-04-25T02:02:39;2.75;;;1.80;;
53642;SDS011;39546;45.534;12.048;2023-04-25T02:08:41;3.42;;;2.53;;
53642;SDS011;39546;45.534;12.048;2023-04-25T02:14:46;4.32;;;2.60;;
53642;SDS011;39546;45.534;12.048;2023-04-25T02:21:11;2.95;;;2.08;;
53642;SDS011;39546;45.534;12.048;2023-04-25T02:27:23;10.00;;;2.40;;
53642;SDS011;39546;45.534;12.048;2023-04-25T02:33:25;2.30;;;1.80;;
53642;SDS011;39546;45.534;12.048;2023-04-25T02:39:33;3.12;;;2.08;;
53642;SDS011;39546;45.534;12.048;2023-04-25T02:45:40;2.03;;;1.73;;
53642;SDS011;39546;45.534;12.048;2023-04-25T02:51:42;3.10;;;2.60;;
53642;SDS011;39546;45.534;12.048;2023-04-25T02:57:45;5.12;;;3.28;;
53642;SDS011;39546;45.534;12.048;2023-04-25T03:03:48;4.50;;;2.58;;
53642;SDS011;39546;45.534;12.048;2023-04-25T03:09:50;4.47;;;2.90;;
53642;SDS011;39546;45.534;12.048;2023-04-25T03:15:52;3.58;;;2.65;;
53642;SDS011;39546;45.534;12.048;2023-04-25T03:21:54;3.80;;;2.75;;
53642;SDS011;39546;45.534;12.048;2023-04-25T03:27:57;3.65;;;2.80;;
53642;SDS011;39546;45.534;12.048;2023-04-25T03:33:59;4.80;;;3.45;;
53642;SDS011;39546;45.534;12.048;2023-04-25T03:40:02;4.00;;;2.47;;
53642;SDS011;39546;45.534;12.048;2023-04-25T03:46:05;3.55;;;2.47;;
53642;SDS011;39546;45.534;12.048;2023-04-25T03:52:07;4.53;;;2.85;;
53642;SDS011;39546;45.534;12.048;2023-04-25T03:58:10;5.70;;;3.65;;
53642;SDS011;39546;45.534;12.048;2023-04-25T04:04:12;6.53;;;4.47;;
53642;SDS011;39546;45.534;12.048;2023-04-25T04:10:15;3.67;;;2.85;;
53642;SDS011;39546;45.534;12.048;2023-04-25T04:16:18;6.97;;;4.22;;
53642;SDS011;39546;45.534;12.048;2023-04-25T04:22:22;4.70;;;3.30;;
53642;SDS011;39546;45.534;12.048;2023-04-25T04:28:25;6.25;;;4.62;;
53642;SDS011;39546;45.534;12.048;2023-04-25T04:34:28;4.47;;;2.78;;
53642;SDS011;39546;45.534;12.048;2023-04-25T04:40:32;4.85;;;3.33;;
53642;SDS011;39546;45.534;12.048;2023-04-25T04:46:35;3.33;;;2.60;;
53642;SDS011;39546;45.534;12.048;2023-04-25T04:52:43;3.22;;;2.37;;
53642;SDS011;39546;45.534;12.048;2023-04-25T04:58:46;4.95;;;2.45;;
53642;SDS011;39546;45.534;12.048;2023-04-25T05:04:51;4.57;;;3.30;;
53642;SDS011;39546;45.534;12.048;2023-04-25T05:10:54;8.02;;;4.43;;
53642;SDS011;39546;45.534;12.048;2023-04-25T05:16:57;2.53;;;1.83;;
53642;SDS011;39546;45.534;12.048;2023-04-25T05:23:00;5.95;;;3.95;;
53642;SDS011;39546;45.534;12.048;2023-04-25T05:29:02;8.07;;;4.70;;
53642;SDS011;39546;45.534;12.048;2023-04-25T05:35:05;7.47;;;5.05;;
53642;SDS011;39546;45.534;12.048;2023-04-25T05:41:15;4.12;;;2.58;;
53642;SDS011;39546;45.534;12.048;2023-04-25T05:47:52;3.75;;;2.58;;
53642;SDS011;39546;45.534;12.048;2023-04-25T05:53:55;3.80;;;2.12;;
53642;SDS011;39546;45.534;12.048;2023-04-25T06:00:02;6.57;;;4.87;;
53642;SDS011;39546;45.534;12.048;2023-04-25T06:06:33;4.68;;;3.00;;
53642;SDS011;39546;45.534;12.048;2023-04-25T06:12:35;3.33;;;2.55;;
53642;SDS011;39546;45.534;12.048;2023-04-25T06:18:38;3.58;;;2.00;;
53642;SDS011;39546;45.534;12.048;2023-04-25T06:24:41;5.90;;;3.75;;
53642;SDS011;39546;45.534;12.048;2023-04-25T06:30:46;4.32;;;3.15;;
53642;SDS011;39546;45.534;12.048;2023-04-25T06:36:48;4.43;;;2.85;;
53642;SDS011;39546;45.534;12.048;2023-04-25T06:42:51;4.03;;;2.53;;
53642;SDS011;39546;45.534;12.048;2023-04-25T06:48:55;3.37;;;2.67;;
53642;SDS011;39546;45.534;12.048;2023-04-25T06:54:58;4.53;;;3.58;;
53642;SDS011;39546;45.534;12.048;2023-04-25T07:01:04;8.18;;;5.20;;
53642;SDS011;39546;45.534;12.048;2023-04-25T07:07:07;4.65;;;3.35;;
53642;SDS011;39546;45.534;12.048;2023-04-25T07:13:11;4.45;;;3.25;;
53642;SDS011;39546;45.534;12.048;2023-04-25T07:19:13;3.40;;;2.60;;
53642;SDS011;39546;45.534;12.048;2023-04-25T07:25:16;6.03;;;2.97;;
53642;SDS011;39546;45.534;12.048;2023-04-25T07:31:24;6.27;;;2.87;;
53642;SDS011;39546;45.534;12.048;2023-04-25T07:37:26;8.48;;;5.68;;
53642;SDS011;39546;45.534;12.048;2023-04-25T07:43:29;4.40;;;2.83;;
53642;SDS011;39546;45.534;12.048;2023-04-25T07:49:36;7.47;;;5.30;;
53642;SDS011;39546;45.534;12.048;2023-04-25T07:55:39;6.10;;;3.78;;
53642;SDS011;39546;45.534;12.048;2023-04-25T08:01:41;4.78;;;3.17;;
53642;SDS011;39546;45.534;12.048;2023-04-25T08:07:45;6.80;;;4.55;;
53642;SDS011;39546;45.534;12.048;2023-04-25T08:13:47;6.68;;;4.62;;
53642;SDS011;39546;45.534;12.048;2023-04-25T08:19:49;6.28;;;4.05;;
53642;SDS011;39546;45.534;12.048;2023-04-25T08:25:53;7.85;;;5.95;;
53642;SDS011;39546;45.534;12.048;2023-04-25T08:31:56;6.68;;;4.03;;
53642;SDS011;39546;45.534;12.048;2023-04-25T08:37:58;5.75;;;4.22;;
53642;SDS011;39546;45.534;12.048;2023-04-25T08:44:02;5.50;;;4.22;;
53642;SDS011;39546;45.534;12.048;2023-04-25T08:50:06;4.75;;;3.15;;
53642;SDS011;39546;45.534;12.048;2023-04-25T08:56:08;8.65;;;6.62;;
53642;SDS011;39546;45.534;12.048;2023-04-25T09:02:14;9.82;;;6.07;;
53642;SDS011;39546;45.534;12.048;2023-04-25T09:08:20;12.00;;;9.45;;
53642;SDS011;39546;45.534;12.048;2023-04-25T09:14:23;17.87;;;13.32;;
53642;SDS011;39546;45.534;12.048;2023-04-25T09:20:27;31.70;;;28.15;;
53642;SDS011;39546;45.534;12.048;2023-04-25T09:26:31;6.78;;;5.80;;
53642;SDS011;39546;45.534;12.048;2023-04-25T09:32:34;9.00;;;5.75;;
53642;SDS011;39546;45.534;12.048;2023-04-25T09:38:44;5.93;;;4.07;;
53642;SDS011;39546;45.534;12.048;2023-04-25T09:44:47;5.22;;;3.70;;
53642;SDS011;39546;45.534;12.048;2023-04-25T09:57:16;8.10;;;4.62;;
53642;SDS011;39546;45.534;12.048;2023-04-25T10:03:20;6.25;;;4.72;;
53642;SDS011;39546;45.534;12.048;2023-04-25T10:09:27;5.65;;;3.17;;
53642;SDS011;39546;45.534;12.048;2023-04-25T10:15:35;1.83;;;1.67;;
53642;SDS011;39546;45.534;12.048;2023-04-25T10:21:44;3.17;;;2.08;;
53642;SDS011;39546;45.534;12.048;2023-04-25T10:27:51;2.08;;;1.52;;
53642;SDS011;39546;45.534;12.048;2023-04-25T10:33:54;1.30;;;1.12;;
53642;SDS011;39546;45.534;12.048;2023-04-25T10:39:56;1.95;;;1.33;;
53642;SDS011;39546;45.534;12.048;2023-04-25T10:46:01;1.98;;;1.17;;
53642;SDS011;39546;45.534;12.048;2023-04-25T10:52:38;1.62;;;1.33;;
53642;SDS011;39546;45.534;12.048;2023-04-25T10:58:34;1.85;;;1.00;;
53642;SDS011;39546;45.534;12.048;2023-04-25T11:04:36;1.37;;;1.20;;
53642;SDS011;39546;45.534;12.048;2023-04-25T11:10:39;1.45;;;1.05;;
53642;SDS011;39546;45.534;12.048;2023-04-25T11:16:42;3.42;;;1.05;;
53642;SDS011;39546;45.534;12.048;2023-04-25T11:22:45;1.42;;;1.12;;
53642;SDS011;39546;45.534;12.048;2023-04-25T11:28:48;1.42;;;1.00;;
53642;SDS011;39546;45.534;12.048;2023-04-25T11:34:52;2.05;;;1.15;;
53642;SDS011;39546;45.534;12.048;2023-04-25T11:40:54;1.70;;;1.27;;
53642;SDS011;39546;45.534;12.048;2023-04-25T11:46:56;1.42;;;1.05;;
53642;SDS011;39546;45.534;12.048;2023-04-25T11:52:59;1.20;;;1.08;;
53642;SDS011;39546;45.534;12.048;2023-04-25T11:59:02;1.02;;;0.85;;
53642;SDS011;39546;45.534;12.048;2023-04-25T12:05:06;1.98;;;1.10;;
53642;SDS011;39546;45.534;12.048;2023-04-25T12:11:20;3.65;;;1.12;;
53642;SDS011;39546;45.534;12.048;2023-04-25T12:17:23;0.90;;;0.82;;
53642;SDS011;39546;45.534;12.048;2023-04-25T12:23:25;0.90;;;0.90;;
53642;SDS011;39546;45.534;12.048;2023-04-25T12:29:29;1.77;;;1.00;;
53642;SDS011;39546;45.534;12.048;2023-04-25T12:35:33;2.45;;;1.42;;
53642;SDS011;39546;45.534;12.048;2023-04-25T12:41:35;0.73;;;0.73;;
53642;SDS011;39546;45.534;12.048;2023-04-25T12:47:37;1.70;;;1.20;;
53642;SDS011;39546;45.534;12.048;2023-04-25T12:53:39;1.58;;;1.00;;
53642;SDS011;39546;45.534;12.048;2023-04-25T12:59:41;1.00;;;0.88;;
53642;SDS011;39546;45.534;12.048;2023-04-25T13:05:43;2.17;;;1.30;;
53642;SDS011;39546;45.534;12.048;2023-04-25T13:11:46;2.30;;;1.05;;
53642;SDS011;39546;45.534;12.048;2023-04-25T13:17:48;0.93;;;0.88;;
53642;SDS011;39546;45.534;12.048;2023-04-25T13:23:50;0.77;;;0.70;;
53642;SDS011;39546;45.534;12.048;2023-04-25T13:29:52;1.25;;;0.80;;
53642;SDS011;39546;45.534;12.048;2023-04-25T13:35:54;4.90;;;0.90;;
53642;SDS011;39546;45.534;12.048;2023-04-25T13:41:58;1.30;;;1.00;;
53642;SDS011;39546;45.534;12.048;2023-04-25T13:48:00;0.90;;;0.90;;
53642;SDS011;39546;45.534;12.048;2023-04-25T13:54:02;2.25;;;1.00;;
53642;SDS011;39546;45.534;12.048;2023-04-25T14:00:05;0.88;;;0.88;;
53642;SDS011;39546;45.534;12.048;2023-04-25T14:06:10;0.73;;;0.70;;
53642;SDS011;39546;45.534;12.048;2023-04-25T14:12:13;0.98;;;0.77;;
53642;SDS011;39546;45.534;12.048;2023-04-25T14:18:17;1.10;;;0.90;;
53642;SDS011;39546;45.534;12.048;2023-04-25T14:24:20;1.10;;;1.00;;
53642;SDS011;39546;45.534;12.048;2023-04-25T14:30:22;3.20;;;1.35;;
53642;SDS011;39546;45.534;12.048;2023-04-25T14:36:24;4.78;;;1.33;;
53642;SDS011;39546;45.534;12.048;2023-04-25T14:42:27;1.70;;;1.05;;
53642;SDS011;39546;45.534;12.048;2023-04-25T14:48:29;1.48;;;0.95;;
53642;SDS011;39546;45.534;12.048;2023-04-25T14:54:31;7.32;;;1.33;;
53642;SDS011;39546;45.534;12.048;2023-04-25T15:00:34;0.95;;;0.95;;
53642;SDS011;39546;45.534;12.048;2023-04-25T15:06:36;1.48;;;1.15;;
53642;SDS011;39546;45.534;12.048;2023-04-25T15:12:42;1.35;;;1.25;;
53642;SDS011;39546;45.534;12.048;2023-04-25T15:18:44;1.73;;;1.33;;
53642;SDS011;39546;45.534;12.048;2023-04-25T15:24:46;5.37;;;1.35;;
53642;SDS011;39546;45.534;12.048;2023-04-25T15:37:38;1.50;;;1.20;;
53642;SDS011;39546;45.534;12.048;2023-04-25T15:43:41;1.70;;;1.48;;
53642;SDS011;39546;45.534;12.048;2023-04-25T15:49:44;3.20;;;1.73;;
53642;SDS011;39546;45.534;12.048;2023-04-25T15:55:46;5.35;;;3.08;;
53642;SDS011;39546;45.534;12.048;2023-04-25T16:01:48;1.48;;;1.37;;
53642;SDS011;39546;45.534;12.048;2023-04-25T16:07:50;4.68;;;1.70;;
53642;SDS011;39546;45.534;12.048;2023-04-25T16:13:54;1.73;;;1.20;;
53642;SDS011;39546;45.534;12.048;2023-04-25T16:19:56;2.40;;;1.62;;
53642;SDS011;39546;45.534;12.048;2023-04-25T16:25:59;2.90;;;1.60;;
53642;SDS011;39546;45.534;12.048;2023-04-25T16:32:01;1.17;;;1.08;;
53642;SDS011;39546;45.534;12.048;2023-04-25T16:38:04;1.98;;;1.20;;
53642;SDS011;39546;45.534;12.048;2023-04-25T16:44:06;2.65;;;1.45;;
53642;SDS011;39546;45.534;12.048;2023-04-25T16:50:09;1.17;;;0.93;;
53642;SDS011;39546;45.534;12.048;2023-04-25T16:56:13;1.52;;;1.05;;
53642;SDS011;39546;45.534;12.048;2023-04-25T17:02:15;1.87;;;1.33;;
53642;SDS011;39546;45.534;12.048;2023-04-25T17:08:18;1.92;;;1.20;;
53642;SDS011;39546;45.534;12.048;2023-04-25T17:14:20;1.20;;;1.08;;
53642;SDS011;39546;45.534;12.048;2023-04-25T17:20:23;1.70;;;1.17;;
53642;SDS011;39546;45.534;12.048;2023-04-25T17:26:25;2.72;;;1.12;;
53642;SDS011;39546;45.534;12.048;2023-04-25T17:32:27;1.77;;;0.90;;
53642;SDS011;39546;45.534;12.048;2023-04-25T17:38:30;2.37;;;1.30;;
53642;SDS011;39546;45.534;12.048;2023-04-25T17:44:33;2.00;;;1.35;;
53642;SDS011;39546;45.534;12.048;2023-04-25T17:50:36;2.85;;;1.55;;
53642;SDS011;39546;45.534;12.048;2023-04-25T17:56:38;1.27;;;1.00;;
53642;SDS011;39546;45.534;12.048;2023-04-25T18:02:41;1.40;;;1.00;;
53642;SDS011;39546;45.534;12.048;2023-04-25T18:08:43;1.35;;;0.90;;
53642;SDS011;39546;45.534;12.048;2023-04-25T18:14:45;1.80;;;1.40;;
53642;SDS011;39546;45.534;12.048;2023-04-25T18:20:48;4.20;;;2.95;;
53642;SDS011;39546;45.534;12.048;2023-04-25T18:26:50;2.47;;;1.92;;
53642;SDS011;39546;45.534;12.048;2023-04-25T18:32:54;2.62;;;1.80;;
53642;SDS011;39546;45.534;12.048;2023-04-25T18:38:57;1.73;;;1.40;;
53642;SDS011;39546;45.534;12.048;2023-04-25T18:45:02;2.95;;;1.80;;
53642;SDS011;39546;45.534;12.048;2023-04-25T18:51:05;3.25;;;1.80;;
53642;SDS011;39546;45.534;12.048;2023-04-25T18:57:08;2.70;;;1.83;;
53642;SDS011;39546;45.534;12.048;2023-04-25T19:03:12;2.40;;;1.85;;
53642;SDS011;39546;45.534;12.048;2023-04-25T19:09:14;2.33;;;1.80;;
53642;SDS011;39546;45.534;12.048;2023-04-25T19:15:16;2.47;;;2.03;;
53642;SDS011;39546;45.534;12.048;2023-04-25T19:21:19;1.55;;;1.40;;
53642;SDS011;39546;45.534;12.048;2023-04-25T19:27:21;3.33;;;2.35;;
53642;SDS011;39546;45.534;12.048;2023-04-25T19:33:24;2.58;;;1.83;;
53642;SDS011;39546;45.534;12.048;2023-04-25T19:39:26;2.50;;;1.75;;
53642;SDS011;39546;45.534;12.048;2023-04-25T19:45:28;2.55;;;1.95;;
53642;SDS011;39546;45.534;12.048;2023-04-25T19:51:32;1.65;;;1.55;;
53642;SDS011;39546;45.534;12.048;2023-04-25T19:57:34;2.65;;;2.05;;
53642;SDS011;39546;45.534;12.048;2023-04-25T20:03:38;2.58;;;2.03;;
53642;SDS011;39546;45.534;12.048;2023-04-25T20:09:40;2.53;;;1.95;;
53642;SDS011;39546;45.534;12.048;2023-04-25T20:15:42;1.30;;;1.20;;
53642;SDS011;39546;45.534;12.048;2023-04-25T20:21:44;2.75;;;1.70;;
53642;SDS011;39546;45.534;12.048;2023-04-25T20:27:47;2.30;;;1.70;;
53642;SDS011;39546;45.534;12.048;2023-04-25T20:33:50;3.65;;;2.22;;
53642;SDS011;39546;45.534;12.048;2023-04-25T20:39:52;2.25;;;1.75;;
53642;SDS011;39546;45.534;12.048;2023-04-25T20:45:54;2.75;;;2.10;;
53642;SDS011;39546;45.534;12.048;2023-04-25T20:51:57;2.97;;;1.80;;
53642;SDS011;39546;45.534;12.048;2023-04-25T20:57:59;3.80;;;1.80;;
53642;SDS011;39546;45.534;12.048;2023-04-25T21:04:01;4.57;;;1.80;;
53642;SDS011;39546;45.534;12.048;2023-04-25T21:10:04;3.45;;;2.50;;
53642;SDS011;39546;45.534;12.048;2023-04-25T21:16:06;2.35;;;1.83;;
53642;SDS011;39546;45.534;12.048;2023-04-25T21:22:08;3.45;;;2.42;;
53642;SDS011;39546;45.534;12.048;2023-04-25T21:28:10;3.40;;;2.10;;
53642;SDS011;39546;45.534;12.048;2023-04-25T21:34:12;4.93;;;2.67;;
53642;SDS011;39546;45.534;12.048;2023-04-25T21:40:15;4.87;;;3.05;;
53642;SDS011;39546;45.534;12.048;2023-04-25T21:46:17;3.90;;;2.85;;
53642;SDS011;39546;45.534;12.048;2023-04-25T21:52:22;2.97;;;2.30;;
53642;SDS011;39546;45.534;12.048;2023-04-25T21:58:25;2.12;;;1.90;;
53642;SDS011;39546;45.534;12.048;2023-04-25T22:04:27;2.85;;;2.10;;
53642;SDS011;39546;45.534;12.048;2023-04-25T22:10:29;2.35;;;1.70;;
53642;SDS011;39546;45.534;12.048;2023-04-25T22:16:32;2.87;;;2.10;;
53642;SDS011;39546;45.534;12.048;2023-04-25T22:22:34;3.03;;;2.10;;
53642;SDS011;39546;45.534;12.048;2023-04-25T22:28:36;2.90;;;2.55;;
53642;SDS011;39546;45.534;12.048;2023-04-25T22:34:40;3.47;;;2.35;;
53642;SDS011;39546;45.534;12.048;2023-04-25T22:40:42;3.85;;;2.37;;
53642;SDS011;39546;45.534;12.048;2023-04-25T22:46:48;4.15;;;2.85;;
53642;SDS011;39546;45.534;12.048;2023-04-25T22:52:50;2.67;;;2.03;;
53642;SDS011;39546;45.534;12.048;2023-04-25T22:58:53;3.60;;;2.40;;
53642;SDS011;39546;45.534;12.048;2023-04-25T23:04:55;10.63;;;6.25;;
53642;SDS011;39546;45.534;12.048;2023-04-25T23:10:57;9.68;;;5.45;;
53642;SDS011;39546;45.534;12.048;2023-04-25T23:16:59;8.20;;;4.70;;
53642;SDS011;39546;45.534;12.048;2023-04-25T23:23:02;6.97;;;4.25;;
53642;SDS011;39546;45.534;12.048;2023-04-25T23:29:04;4.80;;;2.78;;
53642;SDS011;39546;45.534;12.048;2023-04-25T23:35:06;7.00;;;3.90;;
53642;SDS011;39546;45.534;12.048;2023-04-25T23:41:09;4.55;;;2.97;;
53642;SDS011;39546;45.534;12.048;2023-04-25T23:47:12;5.57;;;2.85;;
53642;SDS011;39546;45.534;12.048;2023-04-25T23:53:14;4.53;;;3.80;;
53642;SDS011;39546;45.534;12.048;2023-04-25T23:59:16;4.68;;;3.47;;
